Sitrusdal, Namibia

81°F / 27°C
Unknown
Humidity: 26%
Dew Point: 43°F / 6°C
Wind: East at 5 mph / 7 km/h
Pressure: 30.09 in / 1019 hPa (Rising)
Visibility: -
Clouds:
Yesterday's Maximum: 93°F / 34°C
Yesterday's Minimum: 72°F / 22°C approx.
Yesterday's Cooling Degree Days: 17 approx.
Sunrise:6:48 AM CAT
Sunset:7:27 PM CAT
Moon Rise:8:26 PM CAT
Moon Set:7:27 AM CAT
Moon Phase Full Moon
NOAA Weather Radio
No local feed.
METAR FYOW 202000Z AUTO 09004KT //// // ////// 27/06 Q1019
As of: 10:00 PM CAT on February 20, 2019
Observed at: Otjiwarongo Airport, Namibia

View Station's History

Local Satellite

Current Satellite Forecast
Region Default Local
No Yes

View Full Screen WunderMap

Forecast

Current Satellite Forecast
Tuesday
. High: 95° F. / 35° C.

. High: 95° F. / 35° C.

Features

Weather Apps

WunderRadio

Weather Underground Apps
Check out our wide variety of mobile and setup applications.

Weather Underground Applications

Top of Page

© Copyright 2019
The Weather Company, LLC